Time;durP1;ratioP1;P1;durP2;ratioP2;P2;SDS_P1;SDS_P2;PMS_P1;PMS_P2;Temp;Humidity;BMP_temperature;BMP_pressure;BME280_temperature;BME280_humidity;BME280_pressure;Samples;Min_cycle;Max_cycle;Signal;HPM_P1;HPM_P2
2022/08/16 00:02:44;;;;;;;17.48;14.45;;;;;;;19.24;92.61;98115.09;2222229;80;21011;-81
2022/08/16 00:05:44;;;;;;;15.50;14.00;;;;;;;19.20;92.38;98112.60;2222011;80;20991;-81
2022/08/16 00:08:45;;;;;;;16.02;14.00;;;;;;;19.11;92.02;98108.95;2222231;80;20924;-81
2022/08/16 00:11:45;;;;;;;17.52;15.63;;;;;;;18.98;91.97;98108.01;2221942;80;20945;-81
2022/08/16 00:14:46;;;;;;;16.70;14.95;;;;;;;18.92;92.34;98108.67;2221989;80;20881;-82
2022/08/16 00:17:46;;;;;;;18.02;15.45;;;;;;;18.87;92.66;98108.83;2222048;80;20913;-81
2022/08/16 00:20:46;;;;;;;17.07;15.20;;;;;;;18.84;93.39;98106.28;2222099;80;20963;-82
2022/08/16 00:23:47;;;;;;;16.73;15.08;;;;;;;18.81;93.28;98103.73;2222342;80;20921;-81
2022/08/16 00:26:47;;;;;;;16.37;13.90;;;;;;;18.76;93.55;98096.41;2222189;80;20979;-81
2022/08/16 00:29:48;;;;;;;17.07;15.05;;;;;;;18.75;93.58;98099.97;2222186;80;20959;-82
2022/08/16 00:32:48;;;;;;;17.50;15.53;;;;;;;18.72;94.06;98104.91;2222451;80;20893;-82
2022/08/16 00:35:48;;;;;;;16.52;14.38;;;;;;;18.77;95.01;98104.75;2221986;80;20996;-82
2022/08/16 00:38:49;;;;;;;18.37;14.15;;;;;;;18.80;94.79;98103.33;2222202;80;20881;-82
2022/08/16 00:41:49;;;;;;;16.32;14.73;;;;;;;18.83;94.86;98109.84;2222329;80;20932;-82
2022/08/16 00:44:50;;;;;;;21.15;15.72;;;;;;;18.88;95.46;98114.98;2222134;80;20921;-82
2022/08/16 00:47:50;;;;;;;16.67;15.05;;;;;;;18.80;94.15;98116.55;2222153;80;20924;-82
2022/08/16 00:50:50;;;;;;;16.37;14.43;;;;;;;18.70;93.99;98117.77;2222376;80;20952;-82
2022/08/16 00:53:51;;;;;;;17.23;15.53;;;;;;;18.63;93.78;98118.42;2222291;80;21371;-82
2022/08/16 00:56:51;;;;;;;17.92;16.25;;;;;;;18.60;94.03;98117.62;2222519;80;20889;-82
2022/08/16 00:59:52;;;;;;;18.35;15.38;;;;;;;18.58;94.59;98118.13;2222266;80;20952;-82
2022/08/16 01:02:52;;;;;;;17.45;15.65;;;;;;;18.53;94.29;98122.69;2221755;80;21368;-81
2022/08/16 01:05:52;;;;;;;14.95;13.43;;;;;;;18.45;94.40;98118.97;2222137;80;21036;-82
2022/08/16 01:08:53;;;;;;;17.95;14.13;;;;;;;18.38;94.16;98118.75;2222039;80;20920;-82
2022/08/16 01:11:54;;;;;;;17.25;15.38;;;;;;;18.33;94.61;98123.31;2222197;80;20929;-82
2022/08/16 01:14:54;;;;;;;16.40;14.80;;;;;;;18.32;95.54;98114.52;2222073;80;20953;-82
2022/08/16 01:17:54;;;;;;;17.40;15.45;;;;;;;18.28;95.74;98114.20;2222018;80;20928;-82
2022/08/16 01:20:54;;;;;;;19.70;15.93;;;;;;;18.27;96.71;98112.93;2222234;80;20920;-82
2022/08/16 01:23:55;;;;;;;19.15;16.97;;;;;;;18.29;96.98;98113.29;2222283;80;20932;-82
2022/08/16 01:26:55;;;;;;;20.30;16.67;;;;;;;18.29;97.43;98110.65;2222145;80;21360;-82
2022/08/16 01:29:56;;;;;;;17.85;15.93;;;;;;;18.28;97.59;98101.00;2222185;80;20924;-82
2022/08/16 01:32:56;;;;;;;18.25;16.45;;;;;;;18.30;97.34;98100.49;2222286;80;20968;-82
2022/08/16 01:35:56;;;;;;;19.20;15.72;;;;;;;18.32;97.55;98102.63;2211879;80;21513;-82
2022/08/16 01:38:57;;;;;;;18.90;16.97;;;;;;;18.37;98.25;98099.39;2211711;81;20984;-82
2022/08/16 01:41:57;;;;;;;20.20;17.35;;;;;;;18.42;98.38;98108.03;2211876;81;21028;-82
2022/08/16 01:44:58;;;;;;;20.92;18.50;;;;;;;18.45;99.06;98107.94;2211780;81;20897;-82
2022/08/16 01:47:58;;;;;;;20.75;16.73;;;;;;;18.43;98.55;98098.33;2211658;81;20897;-82
2022/08/16 01:50:58;;;;;;;17.82;15.43;;;;;;;18.36;97.51;98099.44;2211455;81;20945;-82
2022/08/16 01:53:59;;;;;;;17.30;15.50;;;;;;;18.30;96.89;98101.81;2211589;81;20941;-81
2022/08/16 01:56:59;;;;;;;16.32;14.68;;;;;;;18.26;96.55;98108.10;2211808;81;20933;-81
2022/08/16 02:00:00;;;;;;;28.92;16.10;;;;;;;18.19;95.82;98108.30;2211607;81;21296;-80
2022/08/16 02:03:01;;;;;;;17.60;15.90;;;;;;;18.10;95.83;98103.70;2211535;81;20917;-82
2022/08/16 02:06:00;;;;;;;16.55;14.85;;;;;;;18.06;96.02;98110.45;2211753;81;21004;-83
2022/08/16 02:09:01;;;;;;;17.48;15.63;;;;;;;17.98;95.92;98108.03;2211495;81;21300;-81
2022/08/16 02:12:02;;;;;;;20.23;16.12;;;;;;;17.97;96.37;98105.44;2211521;81;20913;-82
2022/08/16 02:15:03;;;;;;;32.30;16.12;;;;;;;17.96;97.08;98097.11;2211555;81;20929;-79
2022/08/16 02:18:02;;;;;;;17.62;15.20;;;;;;;17.93;96.71;98094.55;2211569;81;21306;-82
2022/08/16 02:21:03;;;;;;;16.17;14.45;;;;;;;17.83;95.61;98091.33;2211385;81;20937;-82
2022/08/16 02:24:03;;;;;;;16.60;14.95;;;;;;;17.69;95.60;98091.72;2211735;81;20952;-82
2022/08/16 02:27:03;;;;;;;15.50;13.70;;;;;;;17.64;95.81;98083.48;2211632;81;21285;-82
2022/08/16 02:30:04;;;;;;;18.82;14.60;;;;;;;17.59;95.80;98083.62;2211693;81;20901;-82
2022/08/16 02:33:04;;;;;;;18.48;15.23;;;;;;;17.56;95.77;98080.20;2211941;81;20971;-82
2022/08/16 02:36:04;;;;;;;21.20;16.60;;;;;;;17.53;96.06;98090.39;2220109;80;21043;-82
2022/08/16 02:39:05;;;;;;;18.37;14.80;;;;;;;17.57;96.47;98093.81;2222017;80;20939;-81
2022/08/16 02:42:05;;;;;;;20.25;15.28;;;;;;;17.58;96.34;98084.53;2221939;80;20999;-81
2022/08/16 02:45:06;;;;;;;17.42;15.32;;;;;;;17.60;96.60;98084.03;2221755;80;21003;-81
2022/08/16 02:48:07;;;;;;;17.20;15.38;;;;;;;17.61;96.32;98088.86;2222299;80;20936;-81
2022/08/16 02:51:07;;;;;;;17.42;15.63;;;;;;;17.53;95.86;98087.75;2222268;80;20939;-81
2022/08/16 02:54:07;;;;;;;16.62;15.00;;;;;;;17.47;95.74;98090.56;2222035;80;20999;-81
2022/08/16 02:57:07;;;;;;;17.48;15.35;;;;;;;17.41;95.68;98085.45;2222061;80;21022;-82
2022/08/16 03:00:08;;;;;;;15.90;14.25;;;;;;;17.41;96.12;98089.41;2222105;80;20932;-82
2022/08/16 03:03:08;;;;;;;17.27;14.45;;;;;;;17.42;96.10;98089.83;2222271;80;21355;-82
2022/08/16 03:06:09;;;;;;;17.45;14.83;;;;;;;17.34;95.27;98088.72;2221963;80;21422;-81
2022/08/16 03:09:09;;;;;;;15.03;13.65;;;;;;;17.25;95.07;98089.38;2222004;80;20892;-82
2022/08/16 03:12:09;;;;;;;18.92;14.65;;;;;;;17.19;95.20;98085.14;2222242;80;20960;-82
2022/08/16 03:15:10;;;;;;;17.75;15.30;;;;;;;17.14;95.29;98091.85;2222106;80;20956;-82
2022/08/16 03:18:10;;;;;;;18.48;16.35;;;;;;;17.05;95.47;98088.14;2222269;80;21359;-82
2022/08/16 03:21:11;;;;;;;17.27;15.68;;;;;;;17.05;95.90;98089.45;2222269;80;20972;-82
2022/08/16 03:24:11;;;;;;;16.10;14.50;;;;;;;17.06;96.18;98089.88;2221895;80;20996;-82
2022/08/16 03:27:11;;;;;;;16.82;15.08;;;;;;;17.07;96.31;98095.55;2222131;80;20920;-82
2022/08/16 03:30:12;;;;;;;16.57;14.93;;;;;;;17.11;96.64;98098.53;2222165;80;21339;-82
2022/08/16 03:33:12;;;;;;;17.85;15.32;;;;;;;17.13;97.42;98101.13;2221909;80;21330;-82
2022/08/16 03:36:13;;;;;;;19.48;15.60;;;;;;;17.11;97.88;98100.30;2221331;80;21095;-81
2022/08/16 03:39:13;;;;;;;16.25;14.70;;;;;;;17.08;97.52;98103.87;2220054;80;20964;-82
2022/08/16 03:42:13;;;;;;;17.23;14.75;;;;;;;17.00;96.76;98101.89;2219873;80;21391;-82
2022/08/16 03:45:14;;;;;;;16.85;15.10;;;;;;;17.02;98.04;98096.58;2221688;80;20980;-82
2022/08/16 03:48:14;;;;;;;17.15;15.50;;;;;;;17.10;98.36;98110.44;2221514;80;20960;-82
2022/08/16 03:51:15;;;;;;;16.02;14.65;;;;;;;17.06;96.85;98114.92;2220917;80;20968;-82
2022/08/16 03:54:15;;;;;;;15.60;14.20;;;;;;;17.02;96.68;98111.95;2220832;80;21003;-83
2022/08/16 03:57:15;;;;;;;15.38;13.88;;;;;;;16.98;95.66;98114.25;2220057;80;21034;-83
2022/08/16 04:00:16;;;;;;;17.67;15.45;;;;;;;16.94;95.82;98115.68;2221154;80;21040;-82
2022/08/16 04:03:16;;;;;;;17.25;14.20;;;;;;;16.97;96.25;98112.97;2221455;80;20935;-82
2022/08/16 04:06:17;;;;;;;19.85;14.25;;;;;;;17.03;96.42;98105.77;2221178;80;21622;-82
2022/08/16 04:09:17;;;;;;;15.70;14.07;;;;;;;16.99;95.86;98112.02;2221823;80;20999;-82
2022/08/16 04:12:17;;;;;;;16.20;14.58;;;;;;;17.00;95.91;98112.89;2222132;80;20999;-83
2022/08/16 04:15:18;;;;;;;15.72;14.07;;;;;;;17.00;95.88;98107.62;2222175;80;20964;-83
2022/08/16 04:18:18;;;;;;;16.45;14.85;;;;;;;17.03;96.09;98104.45;2221786;80;21359;-83
2022/08/16 04:21:19;;;;;;;15.40;13.78;;;;;;;17.09;96.57;98109.56;2221998;80;21398;-84
2022/08/16 04:24:19;;;;;;;16.27;14.63;;;;;;;17.19;96.78;98112.38;2221744;80;20956;-83
2022/08/16 04:27:19;;;;;;;116.80;20.32;;;;;;;17.25;96.27;98108.71;2221463;80;21270;-83
2022/08/16 04:30:21;;;;;;;20.15;14.13;;;;;;;17.29;96.77;98109.49;2221084;80;21362;-83
2022/08/16 04:33:20;;;;;;;15.38;13.88;;;;;;;17.32;95.92;98109.41;2221539;80;20937;-83
2022/08/16 04:36:21;;;;;;;71.20;20.12;;;;;;;17.35;95.31;98113.32;2221742;80;21031;-79
2022/08/16 04:39:22;;;;;;;21.23;14.80;;;;;;;17.30;94.78;98113.41;2221666;80;20944;-84
2022/08/16 04:42:21;;;;;;;20.00;14.20;;;;;;;17.29;95.00;98122.69;2221070;80;21022;-83
2022/08/16 04:45:23;;;;;;;17.57;14.03;;;;;;;17.28;95.00;98118.31;2219975;80;20936;-82
2022/08/16 04:48:22;;;;;;;16.52;14.38;;;;;;;17.30;95.44;98123.96;2220020;80;21372;-84
2022/08/16 04:51:23;;;;;;;18.80;15.32;;;;;;;17.39;95.89;98117.61;2220285;80;20991;-83
2022/08/16 04:54:23;;;;;;;17.75;15.70;;;;;;;17.48;96.92;98113.40;2219734;80;20967;-84
2022/08/16 04:57:24;;;;;;;24.00;16.80;;;;;;;17.51;96.80;98109.36;2220602;80;21019;-85
2022/08/16 05:00:24;;;;;;;20.20;16.60;;;;;;;17.55;96.95;98103.55;2220359;80;21019;-84
2022/08/16 05:03:24;;;;;;;16.00;14.33;;;;;;;17.55;96.49;98106.18;2220564;80;20928;-83
2022/08/16 05:06:28;;;;;;;22.37;15.08;;;;;;;17.59;96.14;98124.52;2219743;80;21035;-85
2022/08/16 05:09:28;;;;;;;27.95;19.00;;;;;;;17.60;95.92;98137.27;2219149;80;20999;-82
2022/08/16 05:12:29;;;;;;;53.15;23.20;;;;;;;17.66;96.62;98140.63;2219355;80;21023;-84
2022/08/16 05:15:29;;;;;;;35.60;21.80;;;;;;;17.73;97.04;98143.52;2219249;80;20928;-82
2022/08/16 05:18:30;;;;;;;25.10;18.12;;;;;;;17.82;97.00;98151.17;2219818;80;20945;-83
2022/08/16 05:21:33;;;;;;;46.48;21.52;;;;;;;17.90;96.67;98144.81;2219213;80;21039;-82
2022/08/16 05:24:33;;;;;;;39.57;20.97;;;;;;;17.95;96.60;98136.30;2219457;80;20928;-83
2022/08/16 05:27:33;;;;;;;51.88;22.13;;;;;;;18.09;96.73;98147.33;2218740;80;21713;-82
2022/08/16 05:30:34;;;;;;;51.42;22.37;;;;;;;18.20;96.62;98149.66;2218686;80;21431;-83
2022/08/16 05:33:34;;;;;;;35.05;22.32;;;;;;;18.29;96.78;98148.95;2218869;80;21036;-83
2022/08/16 05:36:35;;;;;;;48.87;21.97;;;;;;;18.38;96.66;98151.32;2219376;80;21328;-83
2022/08/16 05:39:35;;;;;;;28.90;20.50;;;;;;;18.49;96.60;98146.16;2219781;80;21402;-82
2022/08/16 05:42:35;;;;;;;45.45;19.52;;;;;;;18.57;96.50;98150.75;2219151;80;21007;-83
2022/08/16 05:45:36;;;;;;;20.12;17.98;;;;;;;18.66;96.35;98159.30;2218808;80;21367;-82
2022/08/16 05:48:36;;;;;;;22.82;19.35;;;;;;;18.76;96.15;98162.51;2218843;80;21352;-81
2022/08/16 05:51:37;;;;;;;29.12;19.95;;;;;;;18.84;96.11;98159.16;2218917;80;20995;-81
2022/08/16 05:54:37;;;;;;;25.95;20.92;;;;;;;18.84;95.60;98156.52;2218612;80;20943;-82
2022/08/16 05:57:37;;;;;;;26.82;20.30;;;;;;;18.96;95.80;98154.80;2218566;80;20948;-82
2022/08/16 06:00:38;;;;;;;48.08;21.80;;;;;;;19.12;95.68;98154.33;2218785;80;21029;-83
2022/08/16 06:03:38;;;;;;;23.90;21.30;;;;;;;19.33;95.51;98154.92;2218686;80;20991;-83
2022/08/16 06:06:39;;;;;;;27.75;22.00;;;;;;;19.55;94.91;98159.91;2218626;80;21031;-82
2022/08/16 06:09:39;;;;;;;26.45;22.02;;;;;;;19.65;93.83;98159.13;2219116;80;21370;-82
2022/08/16 06:12:39;;;;;;;31.93;23.02;;;;;;;19.72;93.65;98169.91;2219191;80;21003;-82
2022/08/16 06:15:40;;;;;;;42.62;23.25;;;;;;;19.78;93.28;98175.44;2218644;80;20976;-80
2022/08/16 06:18:43;;;;;;;25.32;22.27;;;;;;;19.86;93.13;98181.33;2219032;80;21343;-83
2022/08/16 06:21:41;;;;;;;26.93;21.42;;;;;;;19.98;92.53;98186.22;2218836;80;21023;-84
2022/08/16 06:24:43;;;;;;;30.88;22.35;;;;;;;20.07;91.95;98185.02;2219987;80;20992;-84
2022/08/16 06:27:41;;;;;;;26.48;23.35;;;;;;;20.20;92.08;98191.59;2220150;80;20971;-85
2022/08/16 06:30:42;;;;;;;24.20;21.60;;;;;;;20.37;92.10;98193.14;2220295;80;21011;-83
2022/08/16 06:33:42;;;;;;;41.50;25.12;;;;;;;20.54;92.15;98200.48;2220502;80;21003;-85
2022/08/16 06:36:43;;;;;;;57.95;25.85;;;;;;;20.77;92.12;98200.45;2212029;80;21016;-83
2022/08/16 06:39:43;;;;;;;58.68;24.05;;;;;;;21.08;92.26;98201.92;2210247;81;21366;-84
2022/08/16 06:42:43;;;;;;;69.12;24.10;;;;;;;21.48;91.50;98199.38;2210106;81;21106;-80
2022/08/16 06:45:44;;;;;;;51.23;21.50;;;;;;;21.92;90.43;98204.13;2209384;81;20991;-83
2022/08/16 06:48:44;;;;;;;56.65;22.85;;;;;;;22.23;88.87;98202.33;2209001;81;21015;-84
2022/08/16 06:51:45;;;;;;;46.58;20.80;;;;;;;22.54;88.46;98203.58;2208327;80;20940;-81
2022/08/16 06:54:45;;;;;;;35.85;21.42;;;;;;;22.77;87.17;98200.73;2208213;81;20996;-82
2022/08/16 06:57:45;;;;;;;30.40;18.95;;;;;;;22.75;86.11;98209.25;2208039;81;21431;-82
2022/08/16 07:00:46;;;;;;;26.97;19.20;;;;;;;22.69;85.75;98207.34;2207461;81;21007;-82
2022/08/16 07:03:46;;;;;;;27.22;19.95;;;;;;;22.69;86.08;98210.87;2208007;81;20960;-82
2022/08/16 07:06:47;;;;;;;21.87;18.60;;;;;;;22.73;85.96;98199.15;2208655;81;21055;-82
2022/08/16 07:09:48;;;;;;;31.50;18.55;;;;;;;22.77;86.04;98199.87;2208720;81;21428;-81
2022/08/16 07:12:49;;;;;;;25.23;17.15;;;;;;;22.90;86.23;98197.52;2208981;81;20985;-81
2022/08/16 07:15:48;;;;;;;23.70;17.80;;;;;;;23.17;86.26;98197.50;2208647;81;20928;-82
2022/08/16 07:18:48;;;;;;;20.10;17.45;;;;;;;23.44;85.47;98200.16;2208241;81;21578;-81
2022/08/16 07:21:49;;;;;;;22.65;16.30;;;;;;;23.56;84.69;98197.84;2208451;81;21028;-85
2022/08/16 07:24:49;;;;;;;19.40;16.87;;;;;;;23.67;84.31;98198.16;2208775;81;20960;-82
2022/08/16 07:27:49;;;;;;;23.65;16.40;;;;;;;23.81;84.01;98197.84;2208741;81;21320;-81
2022/08/16 07:30:50;;;;;;;18.27;16.12;;;;;;;23.99;83.48;98200.02;2208743;81;20956;-82
2022/08/16 07:33:50;;;;;;;23.92;17.23;;;;;;;24.15;82.34;98206.73;2208787;81;20975;-82
2022/08/16 07:36:51;;;;;;;23.07;18.52;;;;;;;24.13;81.92;98206.81;2208879;80;21082;-81
2022/08/16 07:39:52;;;;;;;19.73;17.05;;;;;;;24.18;81.92;98200.38;2209524;81;20977;-83
2022/08/16 07:42:51;;;;;;;25.70;16.87;;;;;;;24.21;81.80;98194.87;2210312;81;20999;-82
2022/08/16 07:45:52;;;;;;;23.73;17.87;;;;;;;24.28;81.25;98198.53;2209192;81;21000;-82
2022/08/16 07:48:52;;;;;;;31.50;21.62;;;;;;;24.40;81.19;98201.02;2208780;80;21035;-81
2022/08/16 07:51:53;;;;;;;31.70;25.12;;;;;;;24.45;80.63;98204.29;2209248;80;21034;-80
2022/08/16 07:54:53;;;;;;;27.67;22.32;;;;;;;24.50;80.20;98207.57;2209560;81;20936;-82
2022/08/16 07:57:53;;;;;;;25.60;20.52;;;;;;;24.60;79.87;98202.12;2209869;81;20988;-81
2022/08/16 08:00:54;;;;;;;23.38;19.02;;;;;;;24.72;79.25;98204.58;2209492;81;21321;-82
2022/08/16 08:03:54;;;;;;;19.90;18.02;;;;;;;24.87;78.77;98206.87;2209245;81;21701;-82
2022/08/16 08:06:55;;;;;;;25.40;19.57;;;;;;;25.02;78.60;98196.22;2209855;81;21011;-83
2022/08/16 08:09:55;;;;;;;21.62;18.45;;;;;;;25.30;78.19;98197.34;2210493;81;21004;-83
2022/08/16 08:12:56;;;;;;;22.25;17.50;;;;;;;25.66;77.12;98191.20;2210483;80;20909;-81
2022/08/16 08:15:56;;;;;;;20.80;16.95;;;;;;;26.09;75.54;98193.13;2210182;81;20999;-83
2022/08/16 08:18:56;;;;;;;18.77;16.90;;;;;;;26.36;74.30;98187.44;2210386;81;20963;-80
2022/08/16 08:21:57;;;;;;;24.37;16.52;;;;;;;26.73;72.52;98183.77;2210507;81;21024;-82
2022/08/16 08:25:03;;;;;;;20.20;16.50;;;;;;;26.96;71.77;98185.86;2211253;81;21043;-82
2022/08/16 08:28:03;;;;;;;19.15;15.70;;;;;;;27.09;70.04;98186.80;2210580;81;20921;-83
2022/08/16 08:31:03;;;;;;;20.10;17.62;;;;;;;27.10;70.02;98181.83;2209737;81;20995;-83
2022/08/16 08:34:06;;;;;;;22.93;16.82;;;;;;;27.26;69.90;98185.22;2210197;81;20956;-82
2022/08/16 08:37:05;;;;;;;17.73;15.85;;;;;;;27.33;69.81;98185.66;2216973;80;21070;-82
2022/08/16 08:40:05;;;;;;;19.52;15.50;;;;;;;27.63;68.29;98186.80;2219582;80;21001;-83
2022/08/16 08:43:07;;;;;;;18.55;16.65;;;;;;;27.83;67.96;98186.33;2220566;80;20972;-83
2022/08/16 08:46:06;;;;;;;17.60;15.30;;;;;;;27.88;66.40;98191.38;2220421;80;20963;-79
2022/08/16 08:49:07;;;;;;;24.52;15.58;;;;;;;28.11;65.71;98198.69;2218255;80;21255;-82
2022/08/16 08:52:07;;;;;;;17.23;15.43;;;;;;;28.31;65.26;98195.98;2218993;80;20987;-83
2022/08/16 08:55:09;;;;;;;18.73;15.20;;;;;;;28.57;64.19;98201.33;2219443;80;21020;-80
2022/08/16 08:58:11;;;;;;;18.23;15.60;;;;;;;28.54;63.65;98192.53;2219087;80;20963;-83
2022/08/16 09:01:10;;;;;;;25.23;16.35;;;;;;;28.66;63.11;98198.02;2219229;80;20987;-82
2022/08/16 09:04:11;;;;;;;20.25;16.07;;;;;;;28.70;63.22;98203.55;2219609;80;21473;-82
2022/08/16 09:07:11;;;;;;;21.52;15.48;;;;;;;28.64;62.36;98210.70;2219590;80;21105;-82
2022/08/16 09:10:12;;;;;;;19.35;15.05;;;;;;;28.77;62.79;98203.48;2220304;80;20979;-81
2022/08/16 09:13:12;;;;;;;17.62;15.90;;;;;;;28.92;62.71;98197.51;2220244;80;20964;-81
2022/08/16 09:16:12;;;;;;;16.15;14.63;;;;;;;29.13;61.74;98196.79;2221385;80;20960;-81
2022/08/16 09:19:13;;;;;;;16.30;14.65;;;;;;;29.28;60.40;98192.11;2220713;80;20955;-80
2022/08/16 09:22:13;;;;;;;15.85;14.33;;;;;;;29.26;59.53;98198.08;2221312;80;20991;-81
2022/08/16 09:25:14;;;;;;;19.07;14.47;;;;;;;29.05;58.23;98199.19;2220786;80;21291;-81
2022/08/16 09:28:14;;;;;;;15.25;13.40;;;;;;;28.91;58.52;98193.97;2221144;80;20972;-82
2022/08/16 09:31:14;;;;;;;15.75;14.40;;;;;;;29.02;58.59;98191.34;2221011;80;21027;-82
2022/08/16 09:34:15;;;;;;;15.65;14.15;;;;;;;29.05;57.97;98203.70;2222000;80;20956;-81
2022/08/16 09:37:15;;;;;;;24.65;12.28;;;;;;;29.25;57.61;98199.54;2214795;80;21020;-81
2022/08/16 09:40:18;;;;;;;12.18;10.78;;;;;;;29.44;55.71;98202.11;2210928;81;21030;-81
2022/08/16 09:43:18;;;;;;;14.25;11.90;;;;;;;29.62;54.24;98205.77;2189004;81;21092;-81
2022/08/16 09:46:19;;;;;;;17.52;12.82;;;;;;;29.80;53.37;98205.70;2210507;81;20928;-80
2022/08/16 09:49:19;;;;;;;12.55;11.38;;;;;;;30.15;52.64;98200.33;2211236;81;20936;-81
2022/08/16 09:52:19;;;;;;;14.87;11.68;;;;;;;30.35;51.27;98197.45;2211125;81;20948;-81
2022/08/16 09:55:20;;;;;;;12.55;11.12;;;;;;;30.51;50.79;98198.44;2210692;81;20988;-81
2022/08/16 09:58:22;;;;;;;15.55;13.48;;;;;;;30.59;49.79;98197.36;2211507;81;20963;-82
2022/08/16 10:01:21;;;;;;;13.25;11.85;;;;;;;30.31;50.54;98198.14;2210516;80;20999;-80
2022/08/16 10:04:21;;;;;;;12.00;9.45;;;;;;;30.13;49.86;98206.31;2209847;81;21723;-82
2022/08/16 10:07:22;;;;;;;11.43;9.43;;;;;;;29.96;49.22;98205.39;2210231;81;21024;-81
2022/08/16 10:10:23;;;;;;;9.35;8.40;;;;;;;29.85;49.27;98206.70;2210440;81;20969;-80
2022/08/16 10:13:23;;;;;;;10.95;8.58;;;;;;;29.77;47.96;98202.77;2210784;81;20929;-80
2022/08/16 10:16:24;;;;;;;14.47;9.28;;;;;;;29.95;48.82;98203.67;2210262;81;21423;-80
2022/08/16 10:19:24;;;;;;;11.12;8.98;;;;;;;30.05;48.94;98210.09;2209735;81;20952;-80
2022/08/16 10:22:25;;;;;;;12.55;9.50;;;;;;;30.22;48.49;98205.59;2209871;81;20999;-80
2022/08/16 10:25:25;;;;;;;12.98;9.33;;;;;;;30.25;48.17;98201.31;2209595;81;20928;-80
2022/08/16 10:28:25;;;;;;;13.88;8.83;;;;;;;30.22;48.94;98205.59;2209978;81;21636;-80
2022/08/16 10:31:26;;;;;;;11.28;10.00;;;;;;;30.43;49.08;98201.73;2209215;81;21096;-80
2022/08/16 10:34:26;;;;;;;14.28;10.08;;;;;;;30.61;49.03;98207.53;2209600;81;21039;-80
2022/08/16 10:37:26;;;;;;;12.68;11.30;;;;;;;30.71;48.95;98206.66;2216497;80;21015;-80
2022/08/16 10:40:27;;;;;;;15.83;11.68;;;;;;;30.85;49.23;98208.25;2220786;80;21018;-80
2022/08/16 10:43:27;;;;;;;18.62;11.68;;;;;;;30.57;50.84;98206.02;2219221;80;20960;-80
2022/08/16 10:46:29;;;;;;;14.47;11.78;;;;;;;30.47;50.68;98211.28;2219071;80;20956;-80
2022/08/16 10:49:28;;;;;;;13.35;11.57;;;;;;;30.37;50.99;98205.77;2219109;80;21403;-80
2022/08/16 10:52:31;;;;;;;17.15;12.40;;;;;;;30.38;51.78;98207.48;2218628;80;20984;-80
2022/08/16 10:55:29;;;;;;;11.57;10.58;;;;;;;30.36;51.04;98205.41;2219968;80;20964;-80
2022/08/16 10:58:29;;;;;;;13.00;11.33;;;;;;;30.56;50.46;98208.34;2219802;80;20975;-80
2022/08/16 11:01:32;;;;;;;11.53;9.70;;;;;;;30.87;50.78;98214.37;2188835;80;21019;-80
2022/08/16 11:04:32;;;;;;;16.57;8.85;;;;;;;31.02;48.37;98209.08;2219520;80;21035;-80
2022/08/16 11:07:32;;;;;;;11.80;8.65;;;;;;;31.13;47.28;98201.46;2220253;80;21136;-80
2022/08/16 11:10:33;;;;;;;12.82;8.73;;;;;;;31.14;47.79;98200.97;2220198;80;20961;-80
2022/08/16 11:13:33;;;;;;;14.03;9.58;;;;;;;31.12;47.00;98210.53;2219518;80;20991;-81
2022/08/16 11:16:34;;;;;;;9.75;8.83;;;;;;;31.00;46.74;98207.48;2219125;80;21007;-80
2022/08/16 11:19:34;;;;;;;16.05;9.60;;;;;;;31.18;47.33;98202.46;2219848;80;20940;-79
2022/08/16 11:22:36;;;;;;;9.28;8.30;;;;;;;31.32;47.31;98196.81;2219606;80;21064;-80
2022/08/16 11:25:35;;;;;;;22.65;9.23;;;;;;;31.40;44.67;98196.18;2218473;80;20953;-81
2022/08/16 11:28:35;;;;;;;8.50;7.55;;;;;;;31.34;44.95;98191.66;2218638;80;21294;-80
2022/08/16 11:31:36;;;;;;;8.93;7.83;;;;;;;31.61;44.38;98196.59;2218600;80;20995;-80
2022/08/16 11:34:36;;;;;;;11.35;8.33;;;;;;;31.70;44.30;98194.13;2219257;80;20967;-80
2022/08/16 11:37:37;;;;;;;11.40;8.10;;;;;;;31.82;44.22;98191.25;2218676;80;20988;-81
2022/08/16 11:40:37;;;;;;;15.23;8.58;;;;;;;31.77;43.79;98177.29;2220432;80;21059;-81
2022/08/16 11:43:37;;;;;;;13.48;8.55;;;;;;;31.79;43.35;98184.76;2220457;80;20983;-81
2022/08/16 11:46:38;;;;;;;17.55;8.70;;;;;;;31.73;43.37;98183.08;2220348;80;21413;-81
2022/08/16 11:49:38;;;;;;;10.98;8.10;;;;;;;31.75;42.68;98180.61;2219602;80;20979;-81
2022/08/16 11:52:39;;;;;;;8.25;7.47;;;;;;;31.71;43.22;98175.61;2221017;80;20991;-80
2022/08/16 11:55:39;;;;;;;9.38;7.53;;;;;;;32.02;43.36;98176.04;2221346;80;20986;-81
2022/08/16 11:58:39;;;;;;;10.38;8.58;;;;;;;31.98;42.76;98178.15;2220967;80;20972;-81
2022/08/16 12:01:40;;;;;;;12.03;8.68;;;;;;;31.53;43.58;98179.34;2220919;80;21051;-81
2022/08/16 12:04:41;;;;;;;10.78;8.30;;;;;;;31.13;44.88;98179.90;2220705;80;20983;-81
2022/08/16 12:07:41;;;;;;;14.53;8.48;;;;;;;31.16;45.29;98170.73;2219646;80;21012;-81
2022/08/16 12:10:41;;;;;;;16.42;7.50;;;;;;;31.31;44.79;98164.95;2219109;80;20943;-81
2022/08/16 12:13:42;;;;;;;7.42;6.58;;;;;;;31.36;42.44;98160.52;2219333;80;20940;-81
2022/08/16 12:16:42;;;;;;;10.88;6.60;;;;;;;31.21;40.98;98155.03;2219076;80;20959;-80
2022/08/16 12:19:42;;;;;;;12.50;6.80;;;;;;;31.22;40.04;98154.94;2218935;80;20987;-78
2022/08/16 12:22:43;;;;;;;10.63;7.05;;;;;;;31.34;37.42;98154.41;2217009;80;20983;-80
2022/08/16 12:25:43;;;;;;;13.13;7.17;;;;;;;31.39;39.06;98147.28;2218162;80;21061;-80
2022/08/16 12:28:44;;;;;;;9.63;7.72;;;;;;;31.46;38.16;98146.63;2218358;80;20960;-81
2022/08/16 12:31:44;;;;;;;8.83;7.22;;;;;;;31.60;39.97;98143.63;2218961;80;20995;-79
2022/08/16 12:34:45;;;;;;;12.98;7.10;;;;;;;31.64;38.46;98153.16;2218647;80;21351;-80
2022/08/16 12:37:45;;;;;;;12.73;7.28;;;;;;;31.61;38.36;98144.48;2217654;80;21012;-79
2022/08/16 12:40:47;;;;;;;17.15;8.03;;;;;;;31.66;39.63;98144.45;2217611;80;21004;-81
2022/08/16 12:43:47;;;;;;;8.93;6.95;;;;;;;31.72;40.28;98133.66;2218108;80;20928;-80
2022/08/16 12:48:56;;;;;;;7.90;6.80;;;;;;;31.87;40.79;98139.58;2218018;80;21434;-79
2022/08/16 12:49:47;;;;;;;8.33;6.78;;;;;;;32.01;39.31;98139.23;2217753;80;20979;-80
2022/08/16 12:52:47;;;;;;;10.38;7.20;;;;;;;31.88;39.06;98146.19;2218338;80;20988;-80
2022/08/16 12:55:48;;;;;;;14.30;7.35;;;;;;;31.57;39.75;98139.84;2218242;80;21027;-80
2022/08/16 12:58:49;;;;;;;13.78;7.70;;;;;;;31.79;40.42;98136.19;2218564;80;20971;-79
2022/08/16 13:01:49;;;;;;;12.70;7.35;;;;;;;32.05;39.89;98133.94;2216632;80;21022;-80
2022/08/16 13:04:49;;;;;;;12.03;7.65;;;;;;;32.27;40.05;98134.33;2218600;80;21007;-80
2022/08/16 13:07:50;;;;;;;15.03;7.03;;;;;;;32.41;38.91;98142.56;2218282;80;20964;-80
2022/08/16 13:10:51;;;;;;;11.15;7.90;;;;;;;32.57;38.70;98135.66;2218007;80;21063;-81
2022/08/16 13:13:51;;;;;;;14.93;7.65;;;;;;;32.30;39.08;98138.11;2218538;80;21430;-80
2022/08/16 13:16:51;;;;;;;8.98;8.00;;;;;;;31.57;41.46;98143.02;2218427;80;21031;-80
2022/08/16 13:19:52;;;;;;;14.55;8.08;;;;;;;31.57;41.46;98143.02;2218982;80;21003;-81
2022/08/16 13:22:52;;;;;;;16.35;9.88;;;;;;;31.34;42.35;98139.58;2218743;80;21007;-80
2022/08/16 13:25:53;;;;;;;17.87;10.00;;;;;;;30.95;44.24;98146.38;2218756;80;20971;-80
2022/08/16 13:28:53;;;;;;;12.98;10.00;;;;;;;30.62;45.37;98141.91;2218709;80;21489;-80
2022/08/16 13:31:53;;;;;;;13.32;10.10;;;;;;;30.35;46.11;98145.80;2218478;80;20995;-80
2022/08/16 13:34:54;;;;;;;48.20;12.82;;;;;;;30.15;46.75;98142.95;2218358;80;21120;-81
2022/08/16 13:37:54;;;;;;;20.88;11.65;;;;;;;29.99;47.54;98140.09;2218342;80;21019;-79
2022/08/16 13:40:55;;;;;;;13.30;9.98;;;;;;;29.95;48.45;98154.75;2219870;80;21335;-81
2022/08/16 13:43:55;;;;;;;16.82;10.50;;;;;;;29.93;48.30;98147.78;2221146;80;20913;-81
2022/08/16 13:46:56;;;;;;;22.52;10.48;;;;;;;29.93;48.45;98139.70;2221024;80;21362;-80
2022/08/16 13:49:56;;;;;;;15.83;10.18;;;;;;;29.85;48.71;98142.14;2220990;80;21006;-80
2022/08/16 13:52:56;;;;;;;14.07;10.93;;;;;;;29.78;49.11;98145.30;2221277;80;21027;-79